sensor_id;sensor_type;location;lat;lon;timestamp;temperature;humidity
28823;DHT22;15961;54.678;9.110;2023-05-29T00:00:14;6.40;99.90
28823;DHT22;15961;54.678;9.110;2023-05-29T00:02:43;6.40;99.90
28823;DHT22;15961;54.678;9.110;2023-05-29T00:05:12;6.30;99.90
28823;DHT22;15961;54.678;9.110;2023-05-29T00:07:39;6.20;99.90
28823;DHT22;15961;54.678;9.110;2023-05-29T00:10:06;6.10;99.90
28823;DHT22;15961;54.678;9.110;2023-05-29T00:12:32;6.10;99.90
28823;DHT22;15961;54.678;9.110;2023-05-29T00:14:58;6.10;99.90
28823;DHT22;15961;54.678;9.110;2023-05-29T00:17:24;6.00;99.90
28823;DHT22;15961;54.678;9.110;2023-05-29T00:19:50;5.90;99.90
28823;DHT22;15961;54.678;9.110;2023-05-29T00:22:15;5.90;99.90
28823;DHT22;15961;54.678;9.110;2023-05-29T00:24:41;5.90;99.90
28823;DHT22;15961;54.678;9.110;2023-05-29T00:27:07;5.90;99.90
28823;DHT22;15961;54.678;9.110;2023-05-29T00:29:34;5.90;99.90
28823;DHT22;15961;54.678;9.110;2023-05-29T00:31:59;5.80;99.90
28823;DHT22;15961;54.678;9.110;2023-05-29T00:34:25;5.80;99.90
28823;DHT22;15961;54.678;9.110;2023-05-29T00:36:51;5.80;99.90
28823;DHT22;15961;54.678;9.110;2023-05-29T00:39:17;5.70;99.90
28823;DHT22;15961;54.678;9.110;2023-05-29T00:41:43;5.70;99.90
28823;DHT22;15961;54.678;9.110;2023-05-29T00:44:08;5.70;99.90
28823;DHT22;15961;54.678;9.110;2023-05-29T00:46:34;5.70;99.90
28823;DHT22;15961;54.678;9.110;2023-05-29T00:49:00;5.70;99.90
28823;DHT22;15961;54.678;9.110;2023-05-29T00:51:27;5.60;99.90
28823;DHT22;15961;54.678;9.110;2023-05-29T00:53:54;5.60;99.90
28823;DHT22;15961;54.678;9.110;2023-05-29T00:56:21;5.60;99.90
28823;DHT22;15961;54.678;9.110;2023-05-29T00:58:49;5.60;99.90
28823;DHT22;15961;54.678;9.110;2023-05-29T01:01:15;5.60;99.90
28823;DHT22;15961;54.678;9.110;2023-05-29T01:03:42;5.60;99.90
28823;DHT22;15961;54.678;9.110;2023-05-29T01:06:07;5.60;99.90
28823;DHT22;15961;54.678;9.110;2023-05-29T01:08:33;5.70;99.90
28823;DHT22;15961;54.678;9.110;2023-05-29T01:11:08;5.80;99.90
28823;DHT22;15961;54.678;9.110;2023-05-29T01:13:37;5.80;99.90
28823;DHT22;15961;54.678;9.110;2023-05-29T01:16:09;5.80;99.90
28823;DHT22;15961;54.678;9.110;2023-05-29T01:22:11;5.70;99.90
28823;DHT22;15961;54.678;9.110;2023-05-29T01:24:58;5.70;99.90
28823;DHT22;15961;54.678;9.110;2023-05-29T01:27:30;5.60;99.90
28823;DHT22;15961;54.678;9.110;2023-05-29T01:29:58;5.60;99.90
28823;DHT22;15961;54.678;9.110;2023-05-29T01:32:24;5.60;99.90
28823;DHT22;15961;54.678;9.110;2023-05-29T01:34:51;5.60;99.90
28823;DHT22;15961;54.678;9.110;2023-05-29T01:37:16;5.50;99.90
28823;DHT22;15961;54.678;9.110;2023-05-29T01:39:42;5.50;99.90
28823;DHT22;15961;54.678;9.110;2023-05-29T01:42:08;5.50;99.90
28823;DHT22;15961;54.678;9.110;2023-05-29T01:44:34;5.50;99.90
28823;DHT22;15961;54.678;9.110;2023-05-29T01:47:00;5.50;99.90
28823;DHT22;15961;54.678;9.110;2023-05-29T01:49:28;5.50;99.90
28823;DHT22;15961;54.678;9.110;2023-05-29T01:51:54;5.50;99.90
28823;DHT22;15961;54.678;9.110;2023-05-29T01:54:20;5.50;99.90
28823;DHT22;15961;54.678;9.110;2023-05-29T01:56:46;5.50;99.90
28823;DHT22;15961;54.678;9.110;2023-05-29T01:59:12;5.50;99.90
28823;DHT22;15961;54.678;9.110;2023-05-29T02:01:39;5.40;99.90
28823;DHT22;15961;54.678;9.110;2023-05-29T02:04:05;5.40;99.90
28823;DHT22;15961;54.678;9.110;2023-05-29T02:06:31;5.40;99.90
28823;DHT22;15961;54.678;9.110;2023-05-29T02:08:58;5.40;99.90
28823;DHT22;15961;54.678;9.110;2023-05-29T02:11:24;5.30;99.90
28823;DHT22;15961;54.678;9.110;2023-05-29T02:13:51;5.30;99.90
28823;DHT22;15961;54.678;9.110;2023-05-29T02:16:17;5.30;99.90
28823;DHT22;15961;54.678;9.110;2023-05-29T02:18:46;5.20;99.90
28823;DHT22;15961;54.678;9.110;2023-05-29T02:21:11;5.20;99.90
28823;DHT22;15961;54.678;9.110;2023-05-29T02:23:37;5.10;99.90
28823;DHT22;15961;54.678;9.110;2023-05-29T02:26:02;5.10;99.90
28823;DHT22;15961;54.678;9.110;2023-05-29T02:28:28;5.00;99.90
28823;DHT22;15961;54.678;9.110;2023-05-29T02:30:53;5.00;99.90
28823;DHT22;15961;54.678;9.110;2023-05-29T02:33:19;5.00;99.90
28823;DHT22;15961;54.678;9.110;2023-05-29T02:35:45;5.00;99.90
28823;DHT22;15961;54.678;9.110;2023-05-29T02:38:10;5.10;99.90
28823;DHT22;15961;54.678;9.110;2023-05-29T02:40:36;5.00;99.90
28823;DHT22;15961;54.678;9.110;2023-05-29T02:43:01;5.10;99.90
28823;DHT22;15961;54.678;9.110;2023-05-29T02:45:27;5.00;99.90
28823;DHT22;15961;54.678;9.110;2023-05-29T02:47:52;5.10;99.90
28823;DHT22;15961;54.678;9.110;2023-05-29T02:50:18;5.30;99.90
28823;DHT22;15961;54.678;9.110;2023-05-29T02:52:44;5.30;99.90
28823;DHT22;15961;54.678;9.110;2023-05-29T02:55:09;5.30;99.90
28823;DHT22;15961;54.678;9.110;2023-05-29T02:57:35;5.30;99.90
28823;DHT22;15961;54.678;9.110;2023-05-29T03:00:00;5.30;99.90
28823;DHT22;15961;54.678;9.110;2023-05-29T03:02:26;5.40;99.90
28823;DHT22;15961;54.678;9.110;2023-05-29T03:04:52;5.50;99.90
28823;DHT22;15961;54.678;9.110;2023-05-29T03:07:19;5.60;99.90
28823;DHT22;15961;54.678;9.110;2023-05-29T03:09:45;5.60;99.90
28823;DHT22;15961;54.678;9.110;2023-05-29T03:12:10;5.70;99.90
28823;DHT22;15961;54.678;9.110;2023-05-29T03:14:36;5.80;99.90
28823;DHT22;15961;54.678;9.110;2023-05-29T03:17:04;5.80;99.90
28823;DHT22;15961;54.678;9.110;2023-05-29T03:19:30;5.90;99.90
28823;DHT22;15961;54.678;9.110;2023-05-29T03:21:56;5.80;99.90
28823;DHT22;15961;54.678;9.110;2023-05-29T03:24:21;5.90;99.90
28823;DHT22;15961;54.678;9.110;2023-05-29T03:26:49;5.90;99.90
28823;DHT22;15961;54.678;9.110;2023-05-29T03:29:15;6.00;99.90
28823;DHT22;15961;54.678;9.110;2023-05-29T03:31:41;5.90;99.90
28823;DHT22;15961;54.678;9.110;2023-05-29T03:34:07;6.00;99.90
28823;DHT22;15961;54.678;9.110;2023-05-29T03:36:32;6.00;99.90
28823;DHT22;15961;54.678;9.110;2023-05-29T03:38:58;6.00;99.90
28823;DHT22;15961;54.678;9.110;2023-05-29T03:41:24;6.00;99.90
28823;DHT22;15961;54.678;9.110;2023-05-29T03:43:50;6.00;99.90
28823;DHT22;15961;54.678;9.110;2023-05-29T03:46:16;6.10;99.90
28823;DHT22;15961;54.678;9.110;2023-05-29T03:48:42;6.10;99.90
28823;DHT22;15961;54.678;9.110;2023-05-29T03:51:07;6.20;99.90
28823;DHT22;15961;54.678;9.110;2023-05-29T03:53:33;6.20;99.90
28823;DHT22;15961;54.678;9.110;2023-05-29T03:55:58;6.20;99.90
28823;DHT22;15961;54.678;9.110;2023-05-29T03:58:24;6.30;99.90
28823;DHT22;15961;54.678;9.110;2023-05-29T04:00:49;6.40;99.90
28823;DHT22;15961;54.678;9.110;2023-05-29T04:03:15;6.50;99.90
28823;DHT22;15961;54.678;9.110;2023-05-29T04:05:40;6.60;99.90
28823;DHT22;15961;54.678;9.110;2023-05-29T04:08:06;6.70;99.90
28823;DHT22;15961;54.678;9.110;2023-05-29T04:10:34;6.80;99.90
28823;DHT22;15961;54.678;9.110;2023-05-29T04:13:03;7.00;99.90
28823;DHT22;15961;54.678;9.110;2023-05-29T04:15:29;7.00;99.90
28823;DHT22;15961;54.678;9.110;2023-05-29T04:17:55;7.10;99.90
28823;DHT22;15961;54.678;9.110;2023-05-29T04:20:21;7.20;99.90
28823;DHT22;15961;54.678;9.110;2023-05-29T04:22:47;7.30;99.90
28823;DHT22;15961;54.678;9.110;2023-05-29T04:25:12;7.40;99.90
28823;DHT22;15961;54.678;9.110;2023-05-29T04:27:38;7.50;99.90
28823;DHT22;15961;54.678;9.110;2023-05-29T04:30:06;7.50;99.90
28823;DHT22;15961;54.678;9.110;2023-05-29T04:32:32;7.60;99.90
28823;DHT22;15961;54.678;9.110;2023-05-29T04:35:01;7.70;99.90
28823;DHT22;15961;54.678;9.110;2023-05-29T04:37:28;7.90;99.90
28823;DHT22;15961;54.678;9.110;2023-05-29T04:39:58;8.00;99.90
28823;DHT22;15961;54.678;9.110;2023-05-29T04:42:24;8.10;99.90
28823;DHT22;15961;54.678;9.110;2023-05-29T04:44:51;8.30;99.90
28823;DHT22;15961;54.678;9.110;2023-05-29T04:47:18;8.40;99.90
28823;DHT22;15961;54.678;9.110;2023-05-29T04:49:44;8.50;99.90
28823;DHT22;15961;54.678;9.110;2023-05-29T04:52:14;8.60;99.90
28823;DHT22;15961;54.678;9.110;2023-05-29T04:54:40;8.70;99.90
28823;DHT22;15961;54.678;9.110;2023-05-29T04:57:06;8.80;99.90
28823;DHT22;15961;54.678;9.110;2023-05-29T04:59:31;8.90;99.90
28823;DHT22;15961;54.678;9.110;2023-05-29T05:01:57;9.00;99.90
28823;DHT22;15961;54.678;9.110;2023-05-29T05:04:22;9.10;99.90
28823;DHT22;15961;54.678;9.110;2023-05-29T05:06:48;9.10;99.90
28823;DHT22;15961;54.678;9.110;2023-05-29T05:09:13;9.10;99.90
28823;DHT22;15961;54.678;9.110;2023-05-29T05:11:39;9.20;99.90
28823;DHT22;15961;54.678;9.110;2023-05-29T05:14:04;9.30;99.90
28823;DHT22;15961;54.678;9.110;2023-05-29T05:16:30;9.30;99.90
28823;DHT22;15961;54.678;9.110;2023-05-29T05:18:56;9.40;99.90
28823;DHT22;15961;54.678;9.110;2023-05-29T05:21:21;9.40;99.90
28823;DHT22;15961;54.678;9.110;2023-05-29T05:23:47;9.50;99.90
28823;DHT22;15961;54.678;9.110;2023-05-29T05:26:12;9.50;99.90
28823;DHT22;15961;54.678;9.110;2023-05-29T05:28:38;9.50;99.90
28823;DHT22;15961;54.678;9.110;2023-05-29T05:31:03;9.60;99.90
28823;DHT22;15961;54.678;9.110;2023-05-29T05:33:29;9.70;99.90
28823;DHT22;15961;54.678;9.110;2023-05-29T05:35:54;9.70;99.90
28823;DHT22;15961;54.678;9.110;2023-05-29T05:38:20;9.80;99.90
28823;DHT22;15961;54.678;9.110;2023-05-29T05:40:45;9.90;99.90
28823;DHT22;15961;54.678;9.110;2023-05-29T05:43:11;10.00;99.90
28823;DHT22;15961;54.678;9.110;2023-05-29T05:45:36;10.10;99.90
28823;DHT22;15961;54.678;9.110;2023-05-29T05:48:07;10.30;99.90
28823;DHT22;15961;54.678;9.110;2023-05-29T05:50:33;10.40;99.90
28823;DHT22;15961;54.678;9.110;2023-05-29T05:52:58;10.50;99.90
28823;DHT22;15961;54.678;9.110;2023-05-29T05:55:24;10.60;99.90
28823;DHT22;15961;54.678;9.110;2023-05-29T05:57:51;10.60;99.90
28823;DHT22;15961;54.678;9.110;2023-05-29T06:00:17;10.60;99.90
28823;DHT22;15961;54.678;9.110;2023-05-29T06:02:43;10.70;99.90
28823;DHT22;15961;54.678;9.110;2023-05-29T06:05:10;10.80;99.90
28823;DHT22;15961;54.678;9.110;2023-05-29T06:07:37;10.90;99.90
28823;DHT22;15961;54.678;9.110;2023-05-29T06:10:03;11.10;99.90
28823;DHT22;15961;54.678;9.110;2023-05-29T06:12:29;11.20;99.90
28823;DHT22;15961;54.678;9.110;2023-05-29T06:14:55;11.50;99.90
28823;DHT22;15961;54.678;9.110;2023-05-29T06:17:20;11.60;99.90
28823;DHT22;15961;54.678;9.110;2023-05-29T06:19:47;11.80;99.90
28823;DHT22;15961;54.678;9.110;2023-05-29T06:22:13;11.90;99.90
28823;DHT22;15961;54.678;9.110;2023-05-29T06:24:39;12.10;99.90
28823;DHT22;15961;54.678;9.110;2023-05-29T06:27:05;12.20;99.90
28823;DHT22;15961;54.678;9.110;2023-05-29T06:29:32;12.20;99.90
28823;DHT22;15961;54.678;9.110;2023-05-29T06:31:57;12.10;99.90
28823;DHT22;15961;54.678;9.110;2023-05-29T06:34:23;12.10;99.90
28823;DHT22;15961;54.678;9.110;2023-05-29T06:36:48;12.10;99.90
28823;DHT22;15961;54.678;9.110;2023-05-29T06:39:14;12.10;99.90
28823;DHT22;15961;54.678;9.110;2023-05-29T06:41:40;12.30;99.90
28823;DHT22;15961;54.678;9.110;2023-05-29T06:44:06;12.50;99.90
28823;DHT22;15961;54.678;9.110;2023-05-29T06:46:31;12.60;99.90
28823;DHT22;15961;54.678;9.110;2023-05-29T06:48:57;12.80;99.90
28823;DHT22;15961;54.678;9.110;2023-05-29T06:51:22;12.90;99.90
28823;DHT22;15961;54.678;9.110;2023-05-29T06:53:48;12.90;99.90
28823;DHT22;15961;54.678;9.110;2023-05-29T06:56:13;13.00;99.90
28823;DHT22;15961;54.678;9.110;2023-05-29T06:58:39;13.10;99.90
28823;DHT22;15961;54.678;9.110;2023-05-29T07:01:05;13.30;99.90
28823;DHT22;15961;54.678;9.110;2023-05-29T07:03:31;13.30;99.90
28823;DHT22;15961;54.678;9.110;2023-05-29T07:05:56;13.50;99.90
28823;DHT22;15961;54.678;9.110;2023-05-29T07:08:23;13.60;99.90
28823;DHT22;15961;54.678;9.110;2023-05-29T07:10:48;13.70;99.90
28823;DHT22;15961;54.678;9.110;2023-05-29T07:13:16;13.60;99.90
28823;DHT22;15961;54.678;9.110;2023-05-29T07:15:41;13.70;99.90
28823;DHT22;15961;54.678;9.110;2023-05-29T07:18:07;14.00;99.90
28823;DHT22;15961;54.678;9.110;2023-05-29T07:20:32;14.10;99.90
28823;DHT22;15961;54.678;9.110;2023-05-29T07:22:58;14.30;99.90
28823;DHT22;15961;54.678;9.110;2023-05-29T07:25:24;14.50;99.90
28823;DHT22;15961;54.678;9.110;2023-05-29T07:27:49;14.50;99.90
28823;DHT22;15961;54.678;9.110;2023-05-29T07:30:15;14.50;99.90
28823;DHT22;15961;54.678;9.110;2023-05-29T07:32:41;14.70;99.90
28823;DHT22;15961;54.678;9.110;2023-05-29T07:35:06;14.70;99.90
28823;DHT22;15961;54.678;9.110;2023-05-29T07:37:32;14.80;99.90
28823;DHT22;15961;54.678;9.110;2023-05-29T07:39:58;14.70;99.90
28823;DHT22;15961;54.678;9.110;2023-05-29T07:42:23;14.50;99.90
28823;DHT22;15961;54.678;9.110;2023-05-29T07:44:49;14.60;99.90
28823;DHT22;15961;54.678;9.110;2023-05-29T07:47:14;14.60;99.90
28823;DHT22;15961;54.678;9.110;2023-05-29T07:49:40;14.50;99.90
28823;DHT22;15961;54.678;9.110;2023-05-29T07:52:06;14.70;99.90
28823;DHT22;15961;54.678;9.110;2023-05-29T07:54:32;14.90;99.90
28823;DHT22;15961;54.678;9.110;2023-05-29T07:56:59;15.00;99.90
28823;DHT22;15961;54.678;9.110;2023-05-29T07:59:25;15.30;99.90
28823;DHT22;15961;54.678;9.110;2023-05-29T08:01:51;15.30;99.90
28823;DHT22;15961;54.678;9.110;2023-05-29T08:04:16;15.40;99.90
28823;DHT22;15961;54.678;9.110;2023-05-29T08:06:42;15.50;99.90
28823;DHT22;15961;54.678;9.110;2023-05-29T08:09:09;15.60;99.90
28823;DHT22;15961;54.678;9.110;2023-05-29T08:11:38;15.90;99.90
28823;DHT22;15961;54.678;9.110;2023-05-29T08:14:04;16.00;99.90
28823;DHT22;15961;54.678;9.110;2023-05-29T08:16:29;16.10;99.90
28823;DHT22;15961;54.678;9.110;2023-05-29T08:18:55;16.10;99.90
28823;DHT22;15961;54.678;9.110;2023-05-29T08:21:21;16.10;99.90
28823;DHT22;15961;54.678;9.110;2023-05-29T08:23:46;15.90;99.90
28823;DHT22;15961;54.678;9.110;2023-05-29T08:26:12;15.90;99.90
28823;DHT22;15961;54.678;9.110;2023-05-29T08:28:38;15.90;99.90
28823;DHT22;15961;54.678;9.110;2023-05-29T08:31:04;16.20;99.90
28823;DHT22;15961;54.678;9.110;2023-05-29T08:33:31;16.30;99.90
28823;DHT22;15961;54.678;9.110;2023-05-29T08:36:00;16.30;99.90
28823;DHT22;15961;54.678;9.110;2023-05-29T08:38:26;16.40;99.90
28823;DHT22;15961;54.678;9.110;2023-05-29T08:40:51;16.40;99.90
28823;DHT22;15961;54.678;9.110;2023-05-29T08:43:32;16.70;99.90
28823;DHT22;15961;54.678;9.110;2023-05-29T08:46:03;17.00;99.90
28823;DHT22;15961;54.678;9.110;2023-05-29T08:48:30;17.00;99.90
28823;DHT22;15961;54.678;9.110;2023-05-29T08:50:57;17.00;99.90
28823;DHT22;15961;54.678;9.110;2023-05-29T08:53:24;17.00;99.90
28823;DHT22;15961;54.678;9.110;2023-05-29T08:55:51;17.00;99.90
28823;DHT22;15961;54.678;9.110;2023-05-29T08:58:21;17.00;99.90
28823;DHT22;15961;54.678;9.110;2023-05-29T09:00:48;17.10;99.90
28823;DHT22;15961;54.678;9.110;2023-05-29T09:03:14;17.30;99.90
28823;DHT22;15961;54.678;9.110;2023-05-29T09:05:40;17.40;99.90
28823;DHT22;15961;54.678;9.110;2023-05-29T09:08:08;17.60;99.90
28823;DHT22;15961;54.678;9.110;2023-05-29T09:10:35;17.50;99.90
28823;DHT22;15961;54.678;9.110;2023-05-29T09:13:01;17.40;99.90
28823;DHT22;15961;54.678;9.110;2023-05-29T09:15:26;17.50;99.90
28823;DHT22;15961;54.678;9.110;2023-05-29T09:17:54;17.60;99.90
28823;DHT22;15961;54.678;9.110;2023-05-29T09:20:20;17.60;99.90
28823;DHT22;15961;54.678;9.110;2023-05-29T09:22:57;17.40;99.90
28823;DHT22;15961;54.678;9.110;2023-05-29T09:25:25;17.50;99.90
28823;DHT22;15961;54.678;9.110;2023-05-29T09:27:59;17.60;99.90
28823;DHT22;15961;54.678;9.110;2023-05-29T09:32:56;17.60;99.90
28823;DHT22;15961;54.678;9.110;2023-05-29T09:35:23;17.60;99.90
28823;DHT22;15961;54.678;9.110;2023-05-29T09:37:49;17.80;99.90
28823;DHT22;15961;54.678;9.110;2023-05-29T09:40:15;18.00;99.90
28823;DHT22;15961;54.678;9.110;2023-05-29T09:42:41;18.10;99.90
28823;DHT22;15961;54.678;9.110;2023-05-29T09:45:07;18.20;99.90
28823;DHT22;15961;54.678;9.110;2023-05-29T09:47:34;18.30;99.90
28823;DHT22;15961;54.678;9.110;2023-05-29T09:50:00;18.60;99.90
28823;DHT22;15961;54.678;9.110;2023-05-29T09:52:29;18.70;99.90
28823;DHT22;15961;54.678;9.110;2023-05-29T09:54:55;18.90;99.90
28823;DHT22;15961;54.678;9.110;2023-05-29T09:57:23;18.80;99.90
28823;DHT22;15961;54.678;9.110;2023-05-29T09:59:50;18.60;99.90
28823;DHT22;15961;54.678;9.110;2023-05-29T10:02:18;18.60;99.90
28823;DHT22;15961;54.678;9.110;2023-05-29T10:04:44;18.30;99.90
28823;DHT22;15961;54.678;9.110;2023-05-29T10:07:15;17.90;99.90
28823;DHT22;15961;54.678;9.110;2023-05-29T10:09:45;18.00;99.90
28823;DHT22;15961;54.678;9.110;2023-05-29T10:12:13;18.40;99.90
28823;DHT22;15961;54.678;9.110;2023-05-29T10:14:42;18.30;99.90
28823;DHT22;15961;54.678;9.110;2023-05-29T10:17:11;18.40;99.90
28823;DHT22;15961;54.678;9.110;2023-05-29T10:19:38;18.50;99.90
28823;DHT22;15961;54.678;9.110;2023-05-29T10:22:05;18.50;99.90
28823;DHT22;15961;54.678;9.110;2023-05-29T10:24:32;18.40;99.90
28823;DHT22;15961;54.678;9.110;2023-05-29T10:26:58;18.70;99.90
28823;DHT22;15961;54.678;9.110;2023-05-29T10:29:47;19.10;99.90
28823;DHT22;15961;54.678;9.110;2023-05-29T10:38:08;18.80;99.90
28823;DHT22;15961;54.678;9.110;2023-05-29T10:40:35;18.90;99.90
28823;DHT22;15961;54.678;9.110;2023-05-29T10:43:00;19.20;99.90
28823;DHT22;15961;54.678;9.110;2023-05-29T10:50:51;19.90;99.90
28823;DHT22;15961;54.678;9.110;2023-05-29T10:53:31;20.00;99.90
28823;DHT22;15961;54.678;9.110;2023-05-29T10:55:59;19.90;99.90
28823;DHT22;15961;54.678;9.110;2023-05-29T10:58:25;19.80;99.90
28823;DHT22;15961;54.678;9.110;2023-05-29T11:00:52;19.50;99.90
28823;DHT22;15961;54.678;9.110;2023-05-29T11:03:25;19.70;99.90
28823;DHT22;15961;54.678;9.110;2023-05-29T11:06:05;19.70;99.90
28823;DHT22;15961;54.678;9.110;2023-05-29T11:08:47;19.70;99.90
28823;DHT22;15961;54.678;9.110;2023-05-29T11:11:32;19.60;99.90
28823;DHT22;15961;54.678;9.110;2023-05-29T11:14:02;19.60;99.90
28823;DHT22;15961;54.678;9.110;2023-05-29T11:19:03;19.90;99.90
28823;DHT22;15961;54.678;9.110;2023-05-29T11:24:23;19.80;99.90
28823;DHT22;15961;54.678;9.110;2023-05-29T11:26:51;19.80;99.90
28823;DHT22;15961;54.678;9.110;2023-05-29T11:29:27;20.10;99.90
28823;DHT22;15961;54.678;9.110;2023-05-29T11:32:03;20.10;99.90
28823;DHT22;15961;54.678;9.110;2023-05-29T11:34:31;20.10;99.90
28823;DHT22;15961;54.678;9.110;2023-05-29T11:36:58;20.10;99.90
28823;DHT22;15961;54.678;9.110;2023-05-29T11:39:24;20.10;99.90
28823;DHT22;15961;54.678;9.110;2023-05-29T11:41:50;20.20;99.90
28823;DHT22;15961;54.678;9.110;2023-05-29T11:44:17;20.20;99.90
28823;DHT22;15961;54.678;9.110;2023-05-29T11:46:43;20.20;99.90
28823;DHT22;15961;54.678;9.110;2023-05-29T11:49:08;20.40;99.90
28823;DHT22;15961;54.678;9.110;2023-05-29T11:51:34;20.60;99.90
28823;DHT22;15961;54.678;9.110;2023-05-29T11:53:59;20.50;99.90
28823;DHT22;15961;54.678;9.110;2023-05-29T11:56:29;20.90;99.90
28823;DHT22;15961;54.678;9.110;2023-05-29T11:58:57;21.30;99.90
28823;DHT22;15961;54.678;9.110;2023-05-29T12:01:25;21.70;99.90
28823;DHT22;15961;54.678;9.110;2023-05-29T12:03:51;22.20;99.90
28823;DHT22;15961;54.678;9.110;2023-05-29T12:06:33;22.00;99.90
28823;DHT22;15961;54.678;9.110;2023-05-29T12:08:59;21.80;99.90
28823;DHT22;15961;54.678;9.110;2023-05-29T12:11:26;21.80;99.90
28823;DHT22;15961;54.678;9.110;2023-05-29T12:13:58;21.90;99.90
28823;DHT22;15961;54.678;9.110;2023-05-29T12:16:25;22.00;99.90
28823;DHT22;15961;54.678;9.110;2023-05-29T12:18:52;21.70;99.90
28823;DHT22;15961;54.678;9.110;2023-05-29T12:21:20;21.80;99.90
28823;DHT22;15961;54.678;9.110;2023-05-29T12:23:46;21.90;99.90
28823;DHT22;15961;54.678;9.110;2023-05-29T12:26:12;22.10;99.90
28823;DHT22;15961;54.678;9.110;2023-05-29T12:28:44;22.10;99.90
28823;DHT22;15961;54.678;9.110;2023-05-29T12:31:09;22.50;99.90
28823;DHT22;15961;54.678;9.110;2023-05-29T12:33:36;22.40;99.90
28823;DHT22;15961;54.678;9.110;2023-05-29T12:36:04;22.50;99.90
28823;DHT22;15961;54.678;9.110;2023-05-29T12:38:30;22.50;99.90
28823;DHT22;15961;54.678;9.110;2023-05-29T12:40:56;22.00;99.90
28823;DHT22;15961;54.678;9.110;2023-05-29T12:43:22;22.10;99.90
28823;DHT22;15961;54.678;9.110;2023-05-29T12:45:54;22.30;99.90
28823;DHT22;15961;54.678;9.110;2023-05-29T12:48:20;22.20;99.90
28823;DHT22;15961;54.678;9.110;2023-05-29T12:50:48;21.50;99.90
28823;DHT22;15961;54.678;9.110;2023-05-29T12:53:15;22.00;99.90
28823;DHT22;15961;54.678;9.110;2023-05-29T12:55:43;21.90;99.90
28823;DHT22;15961;54.678;9.110;2023-05-29T12:58:10;21.90;99.90
28823;DHT22;15961;54.678;9.110;2023-05-29T13:00:37;21.70;99.90
28823;DHT22;15961;54.678;9.110;2023-05-29T13:03:04;21.90;99.90
28823;DHT22;15961;54.678;9.110;2023-05-29T13:05:30;22.40;99.90
28823;DHT22;15961;54.678;9.110;2023-05-29T13:07:55;22.40;99.90
28823;DHT22;15961;54.678;9.110;2023-05-29T13:10:22;22.10;99.90
28823;DHT22;15961;54.678;9.110;2023-05-29T13:12:49;22.30;99.90
28823;DHT22;15961;54.678;9.110;2023-05-29T13:15:19;22.00;99.90
28823;DHT22;15961;54.678;9.110;2023-05-29T13:17:45;22.00;99.90
28823;DHT22;15961;54.678;9.110;2023-05-29T13:20:11;22.30;99.90
28823;DHT22;15961;54.678;9.110;2023-05-29T13:22:39;22.50;99.90
28823;DHT22;15961;54.678;9.110;2023-05-29T13:25:05;22.80;99.90
28823;DHT22;15961;54.678;9.110;2023-05-29T13:27:33;22.70;99.90
28823;DHT22;15961;54.678;9.110;2023-05-29T13:30:00;22.90;99.90
28823;DHT22;15961;54.678;9.110;2023-05-29T13:32:25;22.90;99.90
28823;DHT22;15961;54.678;9.110;2023-05-29T13:34:51;22.90;99.90
28823;DHT22;15961;54.678;9.110;2023-05-29T13:37:16;22.80;99.90
28823;DHT22;15961;54.678;9.110;2023-05-29T13:39:42;22.40;99.90
28823;DHT22;15961;54.678;9.110;2023-05-29T13:42:08;22.50;99.90
28823;DHT22;15961;54.678;9.110;2023-05-29T13:44:33;22.80;99.90
28823;DHT22;15961;54.678;9.110;2023-05-29T13:46:59;22.90;99.90
28823;DHT22;15961;54.678;9.110;2023-05-29T13:49:26;22.70;99.90
28823;DHT22;15961;54.678;9.110;2023-05-29T13:51:52;21.90;99.90
28823;DHT22;15961;54.678;9.110;2023-05-29T13:54:17;21.70;99.90
28823;DHT22;15961;54.678;9.110;2023-05-29T13:56:43;21.60;99.90
28823;DHT22;15961;54.678;9.110;2023-05-29T13:59:09;21.90;99.90
28823;DHT22;15961;54.678;9.110;2023-05-29T14:01:34;22.00;99.90
28823;DHT22;15961;54.678;9.110;2023-05-29T14:04:00;22.40;99.90
28823;DHT22;15961;54.678;9.110;2023-05-29T14:06:26;22.40;99.90
28823;DHT22;15961;54.678;9.110;2023-05-29T14:08:52;22.50;99.90
28823;DHT22;15961;54.678;9.110;2023-05-29T14:11:18;22.50;99.90
28823;DHT22;15961;54.678;9.110;2023-05-29T14:13:45;22.60;99.90
28823;DHT22;15961;54.678;9.110;2023-05-29T14:16:11;22.40;99.90
28823;DHT22;15961;54.678;9.110;2023-05-29T14:18:36;22.70;99.90
28823;DHT22;15961;54.678;9.110;2023-05-29T14:21:02;22.70;99.90
28823;DHT22;15961;54.678;9.110;2023-05-29T14:23:27;22.60;99.90
28823;DHT22;15961;54.678;9.110;2023-05-29T14:25:53;22.90;99.90
28823;DHT22;15961;54.678;9.110;2023-05-29T14:28:19;22.50;99.90
28823;DHT22;15961;54.678;9.110;2023-05-29T14:30:45;22.70;99.90
28823;DHT22;15961;54.678;9.110;2023-05-29T14:33:11;22.80;99.90
28823;DHT22;15961;54.678;9.110;2023-05-29T14:35:36;22.80;99.90
28823;DHT22;15961;54.678;9.110;2023-05-29T14:38:02;22.40;99.90
28823;DHT22;15961;54.678;9.110;2023-05-29T14:40:28;22.10;99.90
28823;DHT22;15961;54.678;9.110;2023-05-29T14:42:54;22.30;99.90
28823;DHT22;15961;54.678;9.110;2023-05-29T14:45:19;22.00;99.90
28823;DHT22;15961;54.678;9.110;2023-05-29T14:47:45;22.00;99.90
28823;DHT22;15961;54.678;9.110;2023-05-29T14:50:11;21.60;99.90
28823;DHT22;15961;54.678;9.110;2023-05-29T14:52:37;21.70;99.90
28823;DHT22;15961;54.678;9.110;2023-05-29T14:55:05;21.80;99.90
28823;DHT22;15961;54.678;9.110;2023-05-29T14:57:31;21.90;99.90
28823;DHT22;15961;54.678;9.110;2023-05-29T15:00:04;21.50;99.90
28823;DHT22;15961;54.678;9.110;2023-05-29T15:02:31;21.30;99.90
28823;DHT22;15961;54.678;9.110;2023-05-29T15:04:57;21.30;99.90
28823;DHT22;15961;54.678;9.110;2023-05-29T15:07:22;21.70;99.90
28823;DHT22;15961;54.678;9.110;2023-05-29T15:09:48;21.70;99.90
28823;DHT22;15961;54.678;9.110;2023-05-29T15:12:13;21.80;99.90
28823;DHT22;15961;54.678;9.110;2023-05-29T15:14:39;21.60;99.90
28823;DHT22;15961;54.678;9.110;2023-05-29T15:17:05;21.20;99.90
28823;DHT22;15961;54.678;9.110;2023-05-29T15:19:30;20.80;99.90
28823;DHT22;15961;54.678;9.110;2023-05-29T15:21:57;20.50;99.90
28823;DHT22;15961;54.678;9.110;2023-05-29T15:24:23;20.30;99.90
28823;DHT22;15961;54.678;9.110;2023-05-29T15:26:48;20.40;99.90
28823;DHT22;15961;54.678;9.110;2023-05-29T15:29:14;20.40;99.90
28823;DHT22;15961;54.678;9.110;2023-05-29T15:31:39;20.40;99.90
28823;DHT22;15961;54.678;9.110;2023-05-29T15:34:05;20.30;99.90
28823;DHT22;15961;54.678;9.110;2023-05-29T15:36:30;20.40;99.90
28823;DHT22;15961;54.678;9.110;2023-05-29T15:38:56;20.60;99.90
28823;DHT22;15961;54.678;9.110;2023-05-29T15:41:22;20.80;99.90
28823;DHT22;15961;54.678;9.110;2023-05-29T15:43:54;20.60;99.90
28823;DHT22;15961;54.678;9.110;2023-05-29T15:46:20;20.30;99.90
28823;DHT22;15961;54.678;9.110;2023-05-29T15:48:45;20.30;99.90
28823;DHT22;15961;54.678;9.110;2023-05-29T15:51:11;20.70;99.90
28823;DHT22;15961;54.678;9.110;2023-05-29T15:53:37;20.80;99.90
28823;DHT22;15961;54.678;9.110;2023-05-29T15:56:02;20.80;99.90